Time;durP1;ratioP1;P1;durP2;ratioP2;P2;SDS_P1;SDS_P2;PMS_P1;PMS_P2;Temp;Humidity;BMP_temperature;BMP_pressure;BME280_temperature;BME280_humidity;BME280_pressure;Samples;Min_cycle;Max_cycle;Signal;HPM_P1;HPM_P2
2021/01/17 00:00:49;;;;;;;16.33;7.03;;;8.20;77.40;;;;;;5064855;28;20044;-77
2021/01/17 00:03:16;;;;;;;16.27;7.15;;;8.10;77.20;;;;;;5064365;28;20032;-78
2021/01/17 00:05:43;;;;;;;15.27;7.03;;;8.20;77.40;;;;;;5064402;28;20373;-78
2021/01/17 00:08:11;;;;;;;15.40;6.22;;;8.10;77.20;;;;;;5064843;28;20455;-79
2021/01/17 00:10:38;;;;;;;14.40;7.03;;;8.20;77.40;;;;;;5064162;28;20028;-79
2021/01/17 00:13:06;;;;;;;18.52;7.75;;;8.20;77.50;;;;;;5064347;28;20032;-77
2021/01/17 00:15:32;;;;;;;16.20;6.70;;;8.20;77.40;;;;;;5046121;28;20056;-76
2021/01/17 00:17:59;;;;;;;13.60;5.65;;;8.20;77.50;;;;;;5064801;28;20041;-78
2021/01/17 00:20:26;;;;;;;20.27;6.25;;;8.20;77.50;;;;;;5065153;28;20076;-78
2021/01/17 00:22:56;;;;;;;16.85;6.20;;;8.20;77.40;;;;;;5063818;28;20139;-78
2021/01/17 00:25:22;;;;;;;18.10;5.85;;;8.20;77.40;;;;;;5065199;28;20036;-78
2021/01/17 00:27:53;;;;;;;19.98;7.68;;;8.20;77.60;;;;;;5046577;28;20025;-78
2021/01/17 00:30:30;;;;;;;20.50;6.80;;;8.20;77.40;;;;;;5046492;28;20372;-78
2021/01/17 00:32:58;;;;;;;13.45;6.45;;;8.20;77.40;;;;;;5063512;28;20036;-78
2021/01/17 00:35:26;;;;;;;12.32;5.70;;;8.20;77.40;;;;;;5062710;28;20077;-79
2021/01/17 00:37:54;;;;;;;13.80;5.80;;;8.20;77.40;;;;;;5046834;28;20105;-79
2021/01/17 00:40:20;;;;;;;16.48;6.63;;;8.20;77.40;;;;;;5062565;28;20036;-78
2021/01/17 00:42:48;;;;;;;16.08;6.72;;;8.20;77.40;;;;;;5062828;28;20467;-78
2021/01/17 00:45:14;;;;;;;14.73;5.20;;;8.30;77.50;;;;;;5048268;28;20072;-77
2021/01/17 00:47:48;;;;;;;17.45;6.28;;;8.20;77.30;;;;;;5043108;28;20152;-79
2021/01/17 00:50:17;;;;;;;16.90;5.75;;;8.20;77.30;;;;;;5044514;28;20075;-79
2021/01/17 00:52:44;;;;;;;15.85;6.15;;;8.30;77.50;;;;;;5063360;28;20101;-78
2021/01/17 00:55:11;;;;;;;17.60;6.30;;;8.20;77.30;;;;;;5058477;28;20430;-78
2021/01/17 00:57:38;;;;;;;17.00;6.40;;;8.20;77.30;;;;;;5063548;28;20020;-78
2021/01/17 01:00:12;;;;;;;20.48;6.85;;;8.20;77.30;;;;;;5064647;28;20037;-79
2021/01/17 01:02:50;;;;;;;15.68;6.03;;;8.20;77.30;;;;;;5048808;28;20025;-78
2021/01/17 01:05:16;;;;;;;16.92;5.95;;;8.20;77.30;;;;;;5047447;28;20442;-77
2021/01/17 01:07:42;;;;;;;19.58;6.38;;;8.20;77.80;;;;;;5064963;28;20119;-77
2021/01/17 01:10:09;;;;;;;14.43;6.20;;;8.20;77.30;;;;;;5064909;28;20067;-78
2021/01/17 01:12:36;;;;;;;19.38;5.82;;;8.20;77.30;;;;;;5046562;28;20133;-78
2021/01/17 01:15:04;;;;;;;15.80;5.20;;;8.20;77.30;;;;;;5063461;28;20035;-79
2021/01/17 01:17:30;;;;;;;11.65;4.78;;;8.20;77.30;;;;;;5046324;28;20024;-79
2021/01/17 01:19:56;;;;;;;13.73;6.28;;;8.20;77.30;;;;;;5046217;28;20510;-77
2021/01/17 01:22:22;;;;;;;21.25;6.10;;;8.20;77.30;;;;;;5064475;28;20028;-77
2021/01/17 01:24:48;;;;;;;21.33;6.13;;;8.10;77.10;;;;;;5063974;28;20033;-77
2021/01/17 01:27:14;;;;;;;13.30;6.32;;;8.10;77.10;;;;;;5067113;28;20104;-80
2021/01/17 01:29:40;;;;;;;23.25;6.47;;;8.10;77.10;;;;;;5067974;28;20032;-78
2021/01/17 01:32:06;;;;;;;15.32;5.00;;;8.10;77.00;;;;;;5067727;28;20024;-78
2021/01/17 01:34:32;;;;;;;11.40;5.03;;;8.10;77.10;;;;;;5067265;28;20040;-78
2021/01/17 01:36:58;;;;;;;18.60;6.07;;;8.10;77.10;;;;;;5066464;28;20050;-78
2021/01/17 01:39:24;;;;;;;14.90;5.50;;;8.10;77.10;;;;;;5068038;28;20037;-79
2021/01/17 01:41:50;;;;;;;9.55;4.70;;;8.10;77.10;;;;;;5067689;28;20094;-78
2021/01/17 01:44:16;;;;;;;20.00;5.80;;;8.00;77.00;;;;;;5067902;28;20028;-78
2021/01/17 01:46:42;;;;;;;18.60;5.63;;;8.00;77.00;;;;;;5066940;28;20049;-78
2021/01/17 01:49:09;;;;;;;12.63;5.95;;;8.00;77.00;;;;;;5058340;28;20024;-78
2021/01/17 01:51:37;;;;;;;13.93;5.55;;;8.00;77.00;;;;;;5049393;28;20492;-78
2021/01/17 01:54:05;;;;;;;12.27;4.18;;;8.00;77.10;;;;;;5049625;28;20033;-77
2021/01/17 01:56:32;;;;;;;17.80;5.45;;;8.00;77.10;;;;;;5066826;28;20033;-78
2021/01/17 01:59:02;;;;;;;11.68;4.70;;;8.00;77.10;;;;;;5060700;28;20097;-78
2021/01/17 02:01:28;;;;;;;17.48;5.35;;;8.00;77.30;;;;;;5048271;28;20090;-78
2021/01/17 02:03:54;;;;;;;12.90;5.18;;;8.00;77.10;;;;;;5047253;28;20286;-78
2021/01/17 02:06:22;;;;;;;13.88;4.93;;;8.00;77.10;;;;;;5046458;28;20021;-78
2021/01/17 02:08:51;;;;;;;15.85;5.28;;;8.00;77.10;;;;;;5047455;28;20104;-79
2021/01/17 02:11:20;;;;;;;16.40;5.40;;;8.00;77.10;;;;;;5046977;28;20033;-78
2021/01/17 02:13:56;;;;;;;14.25;5.85;;;8.00;77.00;;;;;;5048263;28;20201;-76
2021/01/17 02:16:22;;;;;;;18.85;6.10;;;8.00;77.00;;;;;;5047594;28;20036;-78
2021/01/17 02:18:52;;;;;;;15.82;5.95;;;7.90;76.80;;;;;;5047201;28;20040;-78
2021/01/17 02:21:19;;;;;;;16.23;5.68;;;8.00;77.00;;;;;;5048141;28;20036;-78
2021/01/17 02:24:11;;;;;;;16.80;5.70;;;7.90;76.80;;;;;;5046496;28;20029;-79
2021/01/17 02:26:39;;;;;;;16.08;5.35;;;7.90;76.80;;;;;;5039460;28;20037;-78
2021/01/17 02:29:08;;;;;;;10.48;5.28;;;7.90;76.80;;;;;;5047381;28;20028;-78
2021/01/17 02:31:36;;;;;;;13.85;4.45;;;7.90;76.80;;;;;;5055368;28;20108;-79
2021/01/17 02:34:03;;;;;;;13.25;5.32;;;7.90;76.80;;;;;;5057011;28;20139;-79
2021/01/17 02:36:52;;;;;;;12.40;4.88;;;7.90;76.90;;;;;;5064015;28;20029;-79
2021/01/17 02:39:48;;;;;;;20.75;6.20;;;7.90;76.90;;;;;;5056327;28;20040;-78
2021/01/17 02:42:15;;;;;;;11.32;4.55;;;7.80;76.70;;;;;;5067641;28;20021;-78
2021/01/17 02:44:42;;;;;;;13.63;4.72;;;7.80;76.70;;;;;;5068494;28;20156;-78
2021/01/17 02:47:08;;;;;;;22.88;5.22;;;7.80;76.70;;;;;;5059449;28;20045;-78
2021/01/17 02:49:34;;;;;;;12.68;4.55;;;7.80;76.70;;;;;;5055173;28;20387;-78
2021/01/17 02:52:04;;;;;;;13.25;4.15;;;7.80;76.70;;;;;;5051661;28;20033;-78
2021/01/17 02:54:33;;;;;;;11.48;4.25;;;7.80;76.70;;;;;;5055088;28;20111;-78
2021/01/17 02:57:13;;;;;;;20.08;5.93;;;7.80;76.70;;;;;;5069777;28;20029;-78
2021/01/17 02:59:55;;;;;;;16.60;5.03;;;7.70;76.50;;;;;;5070183;28;20043;-78
2021/01/17 03:02:29;;;;;;;16.52;4.97;;;7.70;76.60;;;;;;5070206;28;20027;-79
2021/01/17 03:04:59;;;;;;;10.80;4.10;;;7.70;76.60;;;;;;5070320;28;20028;-78
2021/01/17 03:07:29;;;;;;;15.15;4.97;;;7.60;76.30;;;;;;5069919;28;20020;-78
2021/01/17 03:09:56;;;;;;;12.70;4.25;;;7.60;76.40;;;;;;5070079;28;20123;-77
2021/01/17 03:12:22;;;;;;;13.23;5.22;;;7.60;76.40;;;;;;5069129;28;20025;-77
2021/01/17 03:14:49;;;;;;;10.88;3.92;;;7.50;76.20;;;;;;5070052;28;20427;-78
2021/01/17 03:17:16;;;;;;;17.60;5.22;;;7.50;76.30;;;;;;5053313;28;20047;-77
2021/01/17 03:19:42;;;;;;;16.52;4.97;;;7.50;76.30;;;;;;5069919;28;20036;-76
2021/01/17 03:22:08;;;;;;;14.30;5.10;;;7.40;76.20;;;;;;5053241;28;20029;-78
2021/01/17 03:24:33;;;;;;;17.38;5.10;;;7.40;76.20;;;;;;5071162;28;20080;-78
2021/01/17 03:26:59;;;;;;;11.55;4.53;;;7.40;76.30;;;;;;5069503;28;20119;-79
2021/01/17 03:29:25;;;;;;;10.48;4.32;;;7.30;76.20;;;;;;5069804;28;20032;-78
2021/01/17 03:31:51;;;;;;;13.75;5.35;;;7.30;76.20;;;;;;5053240;28;20032;-78
2021/01/17 03:34:17;;;;;;;16.85;5.28;;;7.30;76.30;;;;;;5070805;28;20040;-76
2021/01/17 03:36:43;;;;;;;12.98;4.28;;;7.30;76.30;;;;;;5069348;28;20472;-77
2021/01/17 03:39:09;;;;;;;14.60;5.07;;;7.30;76.30;;;;;;5069544;28;20082;-78
2021/01/17 03:41:35;;;;;;;19.42;4.68;;;7.20;76.10;;;;;;5069020;28;20082;-77
2021/01/17 03:44:01;;;;;;;13.25;4.28;;;7.20;76.20;;;;;;5070720;28;20120;-78
2021/01/17 03:46:31;;;;;;;19.90;4.82;;;7.20;76.20;;;;;;5070884;28;20048;-78
2021/01/17 03:48:57;;;;;;;14.95;5.20;;;7.20;76.30;;;;;;5070419;28;20029;-75
2021/01/17 03:51:23;;;;;;;12.40;4.50;;;7.10;76.10;;;;;;5070829;28;20031;-77
2021/01/17 03:53:49;;;;;;;17.65;4.72;;;7.10;76.10;;;;;;5070876;28;20399;-78
2021/01/17 03:56:15;;;;;;;12.55;4.78;;;7.10;76.10;;;;;;5051101;28;20117;-78
2021/01/17 03:58:41;;;;;;;16.35;4.40;;;7.10;76.20;;;;;;5049118;28;20428;-78
2021/01/17 04:01:07;;;;;;;14.38;4.32;;;7.00;76.50;;;;;;5050489;28;20106;-77
2021/01/17 04:03:33;;;;;;;8.95;3.90;;;7.00;76.00;;;;;;5049039;28;20210;-78
2021/01/17 04:05:59;;;;;;;15.32;4.70;;;7.00;76.00;;;;;;5050613;28;20033;-77
2021/01/17 04:08:25;;;;;;;13.27;4.68;;;7.00;76.10;;;;;;5049129;28;20119;-78
2021/01/17 04:10:50;;;;;;;15.20;4.47;;;6.90;75.90;;;;;;5049477;28;20504;-78
2021/01/17 04:13:16;;;;;;;13.20;4.10;;;6.90;75.90;;;;;;5048379;28;20081;-77
2021/01/17 04:15:42;;;;;;;13.50;4.90;;;6.90;76.00;;;;;;5050466;28;20043;-77
2021/01/17 04:18:09;;;;;;;11.93;4.47;;;6.80;75.80;;;;;;5050181;28;20025;-76
2021/01/17 04:20:35;;;;;;;11.85;3.95;;;6.80;75.90;;;;;;5050241;28;20087;-78
2021/01/17 04:23:04;;;;;;;9.35;4.13;;;6.80;76.00;;;;;;5048840;28;20299;-78
2021/01/17 04:25:30;;;;;;;13.68;4.05;;;6.70;75.80;;;;;;5048311;28;20032;-78
2021/01/17 04:27:57;;;;;;;13.88;4.43;;;6.70;75.90;;;;;;5049545;28;20507;-78
2021/01/17 04:30:26;;;;;;;11.30;5.03;;;6.80;76.10;;;;;;5049609;28;20033;-78
2021/01/17 04:32:53;;;;;;;14.55;4.00;;;6.70;75.90;;;;;;5048513;28;20508;-78
2021/01/17 04:35:19;;;;;;;11.10;4.10;;;6.70;75.90;;;;;;5048480;28;20494;-78
2021/01/17 04:37:45;;;;;;;13.55;4.47;;;6.70;75.90;;;;;;5031862;28;20037;-79
2021/01/17 04:40:11;;;;;;;10.23;3.92;;;6.70;76.00;;;;;;5048078;28;20509;-78
2021/01/17 04:42:40;;;;;;;15.65;4.55;;;6.70;76.00;;;;;;5049347;28;20111;-78
2021/01/17 04:45:10;;;;;;;13.18;4.07;;;6.60;75.80;;;;;;5048545;28;20411;-78
2021/01/17 04:47:39;;;;;;;12.25;4.78;;;6.70;76.00;;;;;;5049814;28;20094;-78
2021/01/17 04:50:07;;;;;;;11.30;4.22;;;6.60;75.80;;;;;;5048547;28;20036;-78
2021/01/17 04:52:41;;;;;;;12.90;4.82;;;6.60;75.80;;;;;;5049769;28;20555;-78
2021/01/17 04:55:09;;;;;;;;;;;6.60;75.90;;;;;;5059990;28;20063;-79
2021/01/17 04:57:50;;;;;;;12.35;3.50;;;6.60;76.00;;;;;;5069625;28;20003;-78
2021/01/17 05:00:24;;;;;;;10.05;3.72;;;6.50;75.70;;;;;;5068365;28;20044;-80
2021/01/17 05:03:33;;;;;;;12.32;3.95;;;6.50;75.70;;;;;;5059720;28;20391;-79
2021/01/17 05:06:14;;;;;;;11.77;3.40;;;6.50;75.80;;;;;;5053813;28;20109;-78
2021/01/17 05:08:45;;;;;;;22.90;4.40;;;6.50;75.80;;;;;;5052407;28;20124;-79
2021/01/17 05:11:39;;;;;;;14.00;4.22;;;6.40;76.10;;;;;;5052100;28;20072;-79
2021/01/17 05:14:33;;;;;;;11.75;3.60;;;6.40;75.70;;;;;;5053414;28;20033;-79
2021/01/17 05:16:59;;;;;;;14.35;4.35;;;6.40;75.70;;;;;;5053331;28;20029;-80
2021/01/17 05:19:24;;;;;;;12.88;4.25;;;6.40;75.70;;;;;;5053583;28;20412;-80
2021/01/17 05:21:52;;;;;;;12.27;3.95;;;6.40;75.70;;;;;;5053397;28;20059;-79
2021/01/17 05:24:19;;;;;;;12.48;3.67;;;6.40;75.80;;;;;;5052253;28;20032;-79
2021/01/17 05:26:53;;;;;;;9.23;3.60;;;6.40;75.90;;;;;;5053123;28;20116;-80
2021/01/17 05:29:20;;;;;;;17.60;4.80;;;6.40;75.90;;;;;;5052028;28;20040;-79
2021/01/17 05:31:54;;;;;;;11.82;3.95;;;6.40;75.90;;;;;;5052141;28;20459;-80
2021/01/17 05:34:20;;;;;;;9.20;4.07;;;6.40;76.00;;;;;;5051443;28;20033;-79
2021/01/17 05:36:46;;;;;;;13.35;3.60;;;6.40;76.00;;;;;;5053317;28;20352;-79
2021/01/17 05:39:13;;;;;;;8.35;3.75;;;6.40;76.00;;;;;;5034729;28;20033;-79
2021/01/17 05:41:39;;;;;;;11.18;3.67;;;6.40;76.00;;;;;;5051181;28;20468;-79
2021/01/17 05:44:05;;;;;;;8.25;3.47;;;6.40;76.00;;;;;;5052762;28;20245;-79
2021/01/17 05:46:31;;;;;;;11.18;3.80;;;6.30;75.80;;;;;;5053088;28;20141;-79
2021/01/17 05:49:13;;;;;;;10.43;3.63;;;6.40;76.00;;;;;;5062562;28;20487;-80
2021/01/17 05:51:39;;;;;;;7.05;3.50;;;6.40;76.00;;;;;;5067747;28;20028;-79
2021/01/17 05:54:08;;;;;;;7.85;3.50;;;6.40;76.00;;;;;;5067327;28;20047;-80
2021/01/17 05:56:35;;;;;;;7.05;3.47;;;6.40;76.00;;;;;;5068191;28;20127;-80
2021/01/17 05:59:02;;;;;;;14.80;4.43;;;6.30;75.80;;;;;;5067622;28;20040;-80
2021/01/17 06:01:34;;;;;;;9.77;3.13;;;6.30;75.80;;;;;;5069445;28;20478;-79
2021/01/17 06:04:12;;;;;;;8.48;3.17;;;6.40;76.10;;;;;;5065886;28;20131;-79
2021/01/17 06:06:42;;;;;;;12.13;3.78;;;6.30;75.90;;;;;;5063195;28;20498;-79
2021/01/17 06:09:09;;;;;;;7.88;3.10;;;6.30;75.90;;;;;;5048607;28;20037;-79
2021/01/17 06:11:35;;;;;;;8.45;3.20;;;6.30;75.90;;;;;;5045664;28;20047;-79
2021/01/17 06:14:03;;;;;;;11.23;3.17;;;6.30;75.90;;;;;;5045077;28;20432;-79
2021/01/17 06:16:39;;;;;;;16.70;4.13;;;6.30;75.90;;;;;;5047307;28;20033;-79
2021/01/17 06:19:10;;;;;;;9.90;3.58;;;6.30;76.00;;;;;;5046862;28;20040;-78
2021/01/17 06:21:37;;;;;;;6.72;3.20;;;6.30;76.00;;;;;;5036151;28;20043;-78
2021/01/17 06:24:05;;;;;;;6.97;3.08;;;6.30;75.90;;;;;;5048471;28;20028;-79
2021/01/17 06:26:33;;;;;;;6.80;3.15;;;6.30;75.90;;;;;;5054166;28;20495;-79
2021/01/17 06:29:01;;;;;;;8.27;3.25;;;6.30;75.90;;;;;;5058566;28;20029;-78
2021/01/17 06:31:29;;;;;;;6.43;3.20;;;6.30;75.90;;;;;;5047338;28;20024;-78
2021/01/17 06:34:15;;;;;;;10.07;3.03;;;6.30;75.90;;;;;;5066886;28;20605;-79
2021/01/17 06:36:46;;;;;;;13.02;3.85;;;6.30;75.90;;;;;;5066059;28;20033;-79
2021/01/17 06:39:26;;;;;;;10.38;3.05;;;6.30;75.90;;;;;;5067200;28;20090;-79
2021/01/17 06:41:57;;;;;;;7.65;3.30;;;6.30;75.90;;;;;;5065347;28;20452;-77
2021/01/17 06:44:31;;;;;;;7.22;3.05;;;6.30;75.90;;;;;;5053305;28;20048;-77
2021/01/17 06:46:58;;;;;;;9.15;3.20;;;6.30;75.90;;;;;;5063252;28;20579;-77
2021/01/17 06:49:30;;;;;;;12.50;4.20;;;6.20;75.70;;;;;;5057237;28;20029;-79
2021/01/17 06:51:57;;;;;;;14.80;3.47;;;6.20;75.70;;;;;;5058465;28;20047;-79
2021/01/17 06:54:51;;;;;;;10.15;3.33;;;6.20;75.80;;;;;;5054936;28;20028;-78
2021/01/17 06:57:20;;;;;;;7.30;3.53;;;6.20;75.80;;;;;;5044343;28;20588;-79
2021/01/17 06:59:50;;;;;;;4.90;3.00;;;6.20;75.80;;;;;;5028737;28;20479;-79
2021/01/17 07:02:25;;;;;;;8.05;3.63;;;6.10;75.70;;;;;;5031240;28;20033;-79
2021/01/17 07:05:28;;;;;;;7.88;3.00;;;6.10;75.70;;;;;;5044874;28;20574;-79
2021/01/17 07:08:12;;;;;;;6.78;3.08;;;6.10;75.80;;;;;;5044844;28;20056;-80
2021/01/17 07:10:42;;;;;;;11.05;3.58;;;6.10;75.80;;;;;;5050104;28;20021;-84
2021/01/17 07:13:09;;;;;;;8.77;3.17;;;6.10;75.80;;;;;;5054745;28;20368;-78
2021/01/17 07:15:38;;;;;;;8.48;3.45;;;6.10;75.90;;;;;;5045618;28;20387;-79
2021/01/17 07:18:09;;;;;;;10.55;3.53;;;6.00;75.80;;;;;;5055531;28;20476;-78
2021/01/17 07:20:36;;;;;;;7.13;2.92;;;6.00;75.80;;;;;;5057934;28;20473;-79
2021/01/17 07:23:04;;;;;;;9.27;2.45;;;6.10;76.00;;;;;;5046734;28;20035;-80
2021/01/17 07:25:31;;;;;;;8.02;3.60;;;6.10;76.00;;;;;;5062678;28;20483;-80
2021/01/17 07:28:03;;;;;;;11.77;3.92;;;6.10;76.00;;;;;;5052197;28;20306;-81
2021/01/17 07:30:52;;;;;;;13.05;4.20;;;6.10;76.00;;;;;;5056171;28;20182;-78
2021/01/17 07:33:27;;;;;;;13.15;3.05;;;6.10;76.00;;;;;;5052876;28;20029;-78
2021/01/17 07:36:03;;;;;;;8.60;4.10;;;6.10;76.00;;;;;;5052227;28;20039;-78
2021/01/17 07:38:34;;;;;;;11.07;3.45;;;6.10;75.90;;;;;;5046724;28;20083;-79
2021/01/17 07:41:07;;;;;;;10.63;4.03;;;6.00;75.70;;;;;;5051807;28;20414;-76
2021/01/17 07:43:35;;;;;;;8.75;2.95;;;6.00;75.70;;;;;;5055047;28;20127;-78
2021/01/17 07:46:04;;;;;;;9.88;3.95;;;6.00;75.80;;;;;;5060425;28;20083;-79
2021/01/17 07:48:31;;;;;;;10.65;3.00;;;6.00;75.80;;;;;;5052368;28;20405;-80
2021/01/17 07:51:00;;;;;;;7.90;3.10;;;5.90;75.70;;;;;;5065478;28;20037;-78
2021/01/17 07:53:38;;;;;;;9.10;4.22;;;5.90;75.80;;;;;;5053358;28;20450;-80
2021/01/17 07:56:33;;;;;;;4.18;2.90;;;5.80;75.70;;;;;;5063069;28;20040;-78
2021/01/17 07:59:05;;;;;;;6.32;2.90;;;5.80;75.70;;;;;;5057875;28;20039;-80
2021/01/17 08:01:38;;;;;;;11.27;4.30;;;5.80;75.80;;;;;;5051759;28;20056;-79
2021/01/17 08:04:04;;;;;;;10.35;3.95;;;5.70;75.70;;;;;;5043544;28;20096;-79
2021/01/17 08:06:36;;;;;;;13.63;4.15;;;5.70;75.70;;;;;;5045000;28;20115;-79
2021/01/17 08:09:09;;;;;;;8.20;3.72;;;5.70;75.80;;;;;;5044442;28;20250;-79
2021/01/17 08:11:43;;;;;;;15.45;3.47;;;5.70;75.90;;;;;;5045375;28;20048;-79
2021/01/17 08:14:25;;;;;;;7.05;3.53;;;5.70;75.90;;;;;;5045615;28;20060;-79
2021/01/17 08:17:13;;;;;;;6.97;3.33;;;5.70;75.90;;;;;;5054178;28;20473;-79
2021/01/17 08:19:46;;;;;;;10.32;3.42;;;5.60;75.70;;;;;;5042951;28;20102;-78
2021/01/17 08:22:19;;;;;;;6.28;2.88;;;5.60;75.70;;;;;;5061218;28;20047;-79
2021/01/17 08:24:45;;;;;;;5.03;2.80;;;5.60;76.20;;;;;;5052131;28;20044;-78
2021/01/17 08:27:37;;;;;;;6.25;3.25;;;5.60;75.70;;;;;;5055305;28;20458;-78
2021/01/17 08:30:05;;;;;;;8.93;3.28;;;5.70;76.40;;;;;;5060223;28;20440;-78
2021/01/17 08:32:43;;;;;;;5.97;2.97;;;5.60;75.70;;;;;;5057325;28;20094;-77
2021/01/17 08:35:15;;;;;;;8.85;3.15;;;5.60;75.70;;;;;;5051723;28;20395;-77
2021/01/17 08:37:52;;;;;;;8.02;3.00;;;5.60;75.70;;;;;;5060559;28;20032;-78
2021/01/17 08:40:28;;;;;;;6.82;2.35;;;5.60;75.70;;;;;;5049004;28;20150;-79
2021/01/17 08:43:01;;;;;;;6.90;3.20;;;5.60;75.80;;;;;;5052639;28;20184;-77
2021/01/17 08:45:27;;;;;;;8.70;3.58;;;5.60;75.80;;;;;;5065029;28;20082;-77
2021/01/17 08:48:00;;;;;;;8.55;2.75;;;5.60;75.70;;;;;;5053926;28;20085;-77
2021/01/17 08:50:34;;;;;;;7.57;3.05;;;5.60;75.80;;;;;;5063975;28;20035;-77
2021/01/17 08:53:07;;;;;;;9.40;3.15;;;5.70;76.00;;;;;;5046833;28;20527;-77
2021/01/17 08:55:39;;;;;;;8.35;3.08;;;5.60;75.80;;;;;;5044342;28;20403;-77
2021/01/17 08:58:06;;;;;;;5.38;2.53;;;5.60;75.80;;;;;;5042991;28;20020;-77
2021/01/17 09:00:55;;;;;;;7.97;3.17;;;5.60;75.80;;;;;;5054322;28;20545;-78
2021/01/17 09:03:44;;;;;;;9.70;3.38;;;5.70;75.90;;;;;;5035180;28;20033;-77
2021/01/17 09:06:13;;;;;;;4.30;2.45;;;5.70;75.90;;;;;;5043870;28;20033;-77
2021/01/17 09:09:01;;;;;;;7.55;2.80;;;5.70;75.90;;;;;;5030977;28;20025;-78
2021/01/17 09:11:39;;;;;;;7.25;2.97;;;5.80;76.10;;;;;;5043791;28;20408;-77
2021/01/17 09:14:20;;;;;;;7.20;2.88;;;5.80;76.00;;;;;;5059477;28;20094;-77
2021/01/17 09:16:55;;;;;;;9.32;3.63;;;5.90;76.30;;;;;;5061009;28;20037;-77
2021/01/17 09:19:31;;;;;;;10.85;3.25;;;5.90;76.30;;;;;;5056815;28;20032;-76
2021/01/17 09:21:59;;;;;;;18.98;4.25;;;6.00;76.40;;;;;;5064399;28;20032;-76
2021/01/17 09:24:29;;;;;;;5.97;3.33;;;6.10;76.50;;;;;;5062321;28;20062;-77
2021/01/17 09:26:57;;;;;;;9.20;2.95;;;6.10;76.40;;;;;;5062405;28;20039;-74
2021/01/17 09:29:23;;;;;;;7.68;3.65;;;6.20;76.50;;;;;;5062689;28;20028;-76
2021/01/17 09:32:01;;;;;;;7.35;3.85;;;6.20;76.40;;;;;;5064108;28;20173;-76
2021/01/17 09:34:29;;;;;;;11.85;3.72;;;6.20;76.40;;;;;;5064254;28;20200;-76
2021/01/17 09:36:56;;;;;;;6.93;3.03;;;6.30;76.50;;;;;;5046007;28;20040;-77
2021/01/17 09:39:34;;;;;;;6.95;2.72;;;6.40;76.70;;;;;;5062523;28;20044;-77
2021/01/17 09:42:02;;;;;;;8.38;3.83;;;6.40;76.70;;;;;;5064097;28;20031;-77
2021/01/17 09:44:29;;;;;;;15.32;3.95;;;6.40;76.70;;;;;;5043681;28;20115;-77
2021/01/17 09:46:55;;;;;;;11.75;3.58;;;6.50;76.80;;;;;;5044626;28;20423;-78
2021/01/17 09:49:23;;;;;;;10.07;3.33;;;6.60;77.00;;;;;;5047661;28;20044;-78
2021/01/17 09:51:49;;;;;;;13.85;4.47;;;6.60;76.90;;;;;;5058203;28;20032;-79
2021/01/17 09:54:16;;;;;;;10.57;3.55;;;6.70;77.10;;;;;;5047928;28;20037;-78
2021/01/17 09:56:43;;;;;;;10.63;4.40;;;6.80;77.20;;;;;;5047720;28;20415;-78
2021/01/17 09:59:13;;;;;;;8.35;3.85;;;6.80;77.10;;;;;;5059391;28;20044;-78
2021/01/17 10:01:40;;;;;;;11.18;3.45;;;6.90;77.20;;;;;;5067579;28;20431;-76
2021/01/17 10:04:06;;;;;;;11.52;3.65;;;7.00;77.40;;;;;;5049100;28;20036;-77
2021/01/17 10:06:33;;;;;;;8.43;3.35;;;7.00;77.30;;;;;;5047796;28;20086;-77
2021/01/17 10:09:00;;;;;;;9.43;3.33;;;7.10;77.40;;;;;;5057531;28;20045;-76
2021/01/17 10:11:25;;;;;;;7.55;3.85;;;7.10;77.40;;;;;;5067320;28;20340;-76
2021/01/17 10:13:51;;;;;;;5.13;3.38;;;7.20;77.50;;;;;;5066010;28;20043;-77
2021/01/17 10:16:22;;;;;;;9.75;3.80;;;7.30;77.70;;;;;;5048575;28;20080;-76
2021/01/17 10:18:48;;;;;;;12.02;3.70;;;7.30;77.60;;;;;;5058240;28;20033;-77
2021/01/17 10:21:16;;;;;;;14.15;3.95;;;7.40;77.70;;;;;;5062872;28;20049;-76
2021/01/17 10:23:42;;;;;;;5.95;3.28;;;7.40;77.60;;;;;;5045288;28;20033;-75
2021/01/17 10:26:09;;;;;;;10.13;3.80;;;7.50;77.70;;;;;;5046382;28;20507;-76
2021/01/17 10:28:36;;;;;;;10.52;3.40;;;7.60;77.80;;;;;;5029218;28;20033;-76
2021/01/17 10:31:02;;;;;;;7.95;3.15;;;7.60;77.70;;;;;;5046887;28;20456;-75
2021/01/17 10:33:31;;;;;;;7.57;3.22;;;7.70;77.80;;;;;;5047155;28;20036;-76
2021/01/17 10:35:57;;;;;;;10.05;3.20;;;7.80;77.90;;;;;;5045293;28;20356;-78
2021/01/17 10:38:24;;;;;;;7.60;3.17;;;7.90;78.00;;;;;;5045202;28;20113;-77
2021/01/17 10:40:50;;;;;;;8.82;3.47;;;7.90;77.90;;;;;;5028426;28;20041;-76
2021/01/17 10:43:30;;;;;;;7.75;3.65;;;8.00;78.00;;;;;;5051312;28;20107;-78
2021/01/17 10:46:17;;;;;;;13.82;5.22;;;8.10;78.10;;;;;;5064826;28;20036;-77
2021/01/17 10:48:59;;;;;;;10.63;4.93;;;8.20;78.20;;;;;;5056938;28;20033;-76
2021/01/17 10:51:35;;;;;;;15.85;5.25;;;8.30;78.40;;;;;;5046388;28;20033;-76
2021/01/17 10:54:05;;;;;;;12.18;4.68;;;8.40;78.50;;;;;;5059300;28;20085;-79
2021/01/17 10:56:33;;;;;;;13.57;5.15;;;8.50;78.60;;;;;;5066606;28;20035;-77
2021/01/17 10:59:00;;;;;;;9.55;4.60;;;8.50;78.50;;;;;;5065271;28;20518;-76
2021/01/17 11:01:30;;;;;;;13.20;4.07;;;8.60;78.50;;;;;;5056412;28;20094;-78
2021/01/17 11:03:58;;;;;;;14.70;5.20;;;8.70;78.60;;;;;;5048487;28;20021;-78
2021/01/17 11:06:28;;;;;;;8.02;3.20;;;8.70;78.50;;;;;;5044854;28;20139;-77
2021/01/17 11:08:59;;;;;;;7.60;3.90;;;8.80;78.60;;;;;;5046570;28;20033;-77
2021/01/17 11:11:29;;;;;;;10.52;3.58;;;8.90;78.60;;;;;;5044878;28;20033;-76
2021/01/17 11:14:05;;;;;;;7.70;3.75;;;8.90;78.50;;;;;;5045819;28;20408;-76
2021/01/17 11:16:42;;;;;;;11.93;4.07;;;9.00;78.60;;;;;;5053466;28;20028;-76
2021/01/17 11:19:10;;;;;;;11.18;4.63;;;9.00;78.50;;;;;;5046378;28;20029;-77
2021/01/17 11:21:36;;;;;;;11.65;4.10;;;9.10;78.60;;;;;;5045684;28;20049;-77
2021/01/17 11:24:03;;;;;;;14.68;4.55;;;9.10;78.50;;;;;;5044164;28;20499;-77
2021/01/17 11:26:29;;;;;;;11.68;4.90;;;9.20;78.70;;;;;;5042341;28;20037;-77
2021/01/17 11:29:00;;;;;;;15.93;4.68;;;9.20;78.70;;;;;;5053438;28;20089;-77
2021/01/17 11:31:27;;;;;;;11.93;4.05;;;9.30;78.70;;;;;;5062131;28;20039;-77
2021/01/17 11:33:53;;;;;;;8.30;4.07;;;9.30;78.60;;;;;;5049090;28;20035;-76
2021/01/17 11:36:22;;;;;;;9.15;4.10;;;9.40;78.70;;;;;;5043992;28;20097;-76
2021/01/17 11:38:48;;;;;;;8.65;3.95;;;9.50;78.70;;;;;;5043069;28;20337;-77
2021/01/17 11:41:16;;;;;;;8.25;3.17;;;9.50;78.60;;;;;;5043558;28;20025;-77
2021/01/17 11:43:42;;;;;;;9.32;3.53;;;9.60;78.70;;;;;;5044088;28;20025;-77
2021/01/17 11:46:10;;;;;;;9.52;4.25;;;9.60;78.60;;;;;;5027320;28;20078;-78
2021/01/17 11:48:37;;;;;;;8.25;3.67;;;9.70;78.60;;;;;;5026568;28;20405;-79
2021/01/17 11:51:05;;;;;;;9.50;3.63;;;9.80;78.70;;;;;;5048412;28;20043;-77
2021/01/17 11:53:33;;;;;;;8.65;3.38;;;9.70;78.40;;;;;;5046907;28;20033;-77
2021/01/17 11:56:00;;;;;;;10.55;3.72;;;9.80;78.50;;;;;;5046932;28;20055;-78
2021/01/17 11:58:27;;;;;;;9.43;3.75;;;9.80;78.40;;;;;;5064701;28;20054;-78
2021/01/17 12:00:58;;;;;;;7.97;4.22;;;9.90;78.50;;;;;;5046995;28;20504;-76
2021/01/17 12:03:26;;;;;;;11.38;3.65;;;9.90;78.40;;;;;;5054148;28;20082;-78
2021/01/17 12:06:02;;;;;;;10.20;4.07;;;9.90;78.30;;;;;;5045259;28;20033;-77
2021/01/17 12:08:49;;;;;;;7.90;2.97;;;10.00;78.30;;;;;;5043141;28;20373;-77
2021/01/17 12:11:33;;;;;;;9.35;3.97;;;10.00;78.20;;;;;;5043542;28;20044;-77
2021/01/17 12:14:01;;;;;;;7.20;3.63;;;10.10;78.30;;;;;;5043463;28;20414;-78
2021/01/17 12:16:46;;;;;;;7.95;3.38;;;10.10;78.20;;;;;;5043311;28;20029;-78
2021/01/17 12:19:14;;;;;;;7.68;3.22;;;10.20;78.40;;;;;;5042514;28;20043;-77
2021/01/17 12:21:40;;;;;;;10.63;3.75;;;10.20;78.20;;;;;;5043435;28;20039;-77
2021/01/17 12:24:09;;;;;;;11.25;3.67;;;10.30;78.30;;;;;;5059302;28;20074;-77
2021/01/17 12:26:35;;;;;;;12.90;3.80;;;10.30;78.20;;;;;;5067632;28;20293;-77
2021/01/17 12:29:02;;;;;;;8.38;4.10;;;10.30;78.10;;;;;;5049026;28;20029;-80
2021/01/17 12:31:28;;;;;;;10.88;3.17;;;10.40;78.20;;;;;;5064842;28;20147;-77
2021/01/17 12:33:56;;;;;;;11.20;4.15;;;10.40;78.00;;;;;;5048447;28;20029;-80
2021/01/17 12:36:24;;;;;;;10.93;4.85;;;10.50;78.10;;;;;;5043657;28;20059;-79
2021/01/17 12:38:51;;;;;;;8.68;3.97;;;10.50;78.00;;;;;;5044690;28;20200;-78
2021/01/17 12:41:19;;;;;;;10.02;3.80;;;10.50;77.90;;;;;;5026316;28;20055;-78
2021/01/17 12:43:46;;;;;;;11.90;4.13;;;10.50;77.80;;;;;;5057642;28;20501;-81
2021/01/17 12:46:13;;;;;;;10.55;4.10;;;10.50;77.70;;;;;;5063408;28;20049;-81
2021/01/17 12:48:39;;;;;;;8.55;4.32;;;10.60;77.80;;;;;;5062873;28;20112;-80
2021/01/17 12:51:06;;;;;;;11.98;3.88;;;10.60;77.70;;;;;;5058631;28;20029;-81
2021/01/17 12:53:32;;;;;;;10.65;4.10;;;10.60;77.70;;;;;;5055774;28;20024;-78
2021/01/17 12:55:58;;;;;;;8.90;4.30;;;10.60;77.60;;;;;;5062487;28;20024;-77
2021/01/17 12:58:24;;;;;;;13.55;4.78;;;10.70;77.70;;;;;;5062718;28;20029;-78
2021/01/17 13:00:50;;;;;;;10.18;4.45;;;10.70;77.60;;;;;;5062936;28;20047;-79
2021/01/17 13:03:16;;;;;;;10.25;4.70;;;10.70;77.50;;;;;;5064296;28;20045;-79
2021/01/17 13:05:42;;;;;;;9.88;3.78;;;10.80;77.60;;;;;;5064235;28;20044;-78